sensor_id;sensor_type;location;lat;lon;timestamp;temperature;humidity
12557;DHT22;6344;49.932;8.308;2022-09-09T00:00:47;15.20;99.90
12557;DHT22;6344;49.932;8.308;2022-09-09T00:03:17;15.10;99.90
12557;DHT22;6344;49.932;8.308;2022-09-09T00:05:52;15.00;99.90
12557;DHT22;6344;49.932;8.308;2022-09-09T00:08:27;15.00;99.90
12557;DHT22;6344;49.932;8.308;2022-09-09T00:11:00;14.90;99.90
12557;DHT22;6344;49.932;8.308;2022-09-09T00:13:32;14.80;99.90
12557;DHT22;6344;49.932;8.308;2022-09-09T00:16:04;14.80;99.90
12557;DHT22;6344;49.932;8.308;2022-09-09T00:18:38;14.80;99.90
12557;DHT22;6344;49.932;8.308;2022-09-09T00:21:08;14.80;99.90
12557;DHT22;6344;49.932;8.308;2022-09-09T00:23:39;14.70;99.90
12557;DHT22;6344;49.932;8.308;2022-09-09T00:26:11;14.70;99.90
12557;DHT22;6344;49.932;8.308;2022-09-09T00:28:48;14.70;99.90
12557;DHT22;6344;49.932;8.308;2022-09-09T00:31:21;14.70;99.90
12557;DHT22;6344;49.932;8.308;2022-09-09T00:33:50;14.60;99.90
12557;DHT22;6344;49.932;8.308;2022-09-09T00:36:21;14.60;99.90
12557;DHT22;6344;49.932;8.308;2022-09-09T00:38:53;14.70;99.90
12557;DHT22;6344;49.932;8.308;2022-09-09T00:41:26;14.70;99.90
12557;DHT22;6344;49.932;8.308;2022-09-09T00:44:03;14.70;99.90
12557;DHT22;6344;49.932;8.308;2022-09-09T00:46:45;14.70;99.90
12557;DHT22;6344;49.932;8.308;2022-09-09T00:49:22;14.60;99.90
12557;DHT22;6344;49.932;8.308;2022-09-09T00:51:59;14.70;99.90
12557;DHT22;6344;49.932;8.308;2022-09-09T00:54:37;14.60;99.90
12557;DHT22;6344;49.932;8.308;2022-09-09T00:57:13;14.60;99.90
12557;DHT22;6344;49.932;8.308;2022-09-09T00:59:48;14.50;99.90
12557;DHT22;6344;49.932;8.308;2022-09-09T01:02:25;14.50;99.90
12557;DHT22;6344;49.932;8.308;2022-09-09T01:04:53;14.40;99.90
12557;DHT22;6344;49.932;8.308;2022-09-09T01:07:20;14.30;99.90
12557;DHT22;6344;49.932;8.308;2022-09-09T01:09:53;14.20;99.90
12557;DHT22;6344;49.932;8.308;2022-09-09T01:12:28;14.10;99.90
12557;DHT22;6344;49.932;8.308;2022-09-09T01:15:04;14.10;99.90
12557;DHT22;6344;49.932;8.308;2022-09-09T01:17:41;14.00;99.90
12557;DHT22;6344;49.932;8.308;2022-09-09T01:20:13;14.00;99.90
12557;DHT22;6344;49.932;8.308;2022-09-09T01:22:47;14.00;99.90
12557;DHT22;6344;49.932;8.308;2022-09-09T01:28:40;14.00;99.90
12557;DHT22;6344;49.932;8.308;2022-09-09T01:31:11;14.10;99.90
12557;DHT22;6344;49.932;8.308;2022-09-09T01:33:40;14.20;99.90
12557;DHT22;6344;49.932;8.308;2022-09-09T01:36:11;14.20;99.90
12557;DHT22;6344;49.932;8.308;2022-09-09T01:38:39;14.20;99.90
12557;DHT22;6344;49.932;8.308;2022-09-09T01:41:06;14.20;99.90
12557;DHT22;6344;49.932;8.308;2022-09-09T01:43:33;14.10;99.90
12557;DHT22;6344;49.932;8.308;2022-09-09T01:46:01;14.10;99.90
12557;DHT22;6344;49.932;8.308;2022-09-09T01:48:29;14.00;99.90
12557;DHT22;6344;49.932;8.308;2022-09-09T01:50:56;14.00;99.90
12557;DHT22;6344;49.932;8.308;2022-09-09T01:53:23;13.90;99.90
12557;DHT22;6344;49.932;8.308;2022-09-09T01:56:07;13.80;99.90
12557;DHT22;6344;49.932;8.308;2022-09-09T01:58:47;13.80;99.90
12557;DHT22;6344;49.932;8.308;2022-09-09T02:01:30;13.70;99.90
12557;DHT22;6344;49.932;8.308;2022-09-09T02:04:03;13.80;99.90
12557;DHT22;6344;49.932;8.308;2022-09-09T02:06:39;13.80;99.90
12557;DHT22;6344;49.932;8.308;2022-09-09T02:09:07;13.70;99.90
12557;DHT22;6344;49.932;8.308;2022-09-09T02:11:37;13.80;99.90
12557;DHT22;6344;49.932;8.308;2022-09-09T02:14:08;13.70;99.90
12557;DHT22;6344;49.932;8.308;2022-09-09T02:16:39;13.60;99.90
12557;DHT22;6344;49.932;8.308;2022-09-09T02:19:09;13.70;99.90
12557;DHT22;6344;49.932;8.308;2022-09-09T02:21:40;13.80;99.90
12557;DHT22;6344;49.932;8.308;2022-09-09T02:24:08;13.80;99.90
12557;DHT22;6344;49.932;8.308;2022-09-09T02:26:39;13.70;99.90
12557;DHT22;6344;49.932;8.308;2022-09-09T02:29:08;13.70;99.90
12557;DHT22;6344;49.932;8.308;2022-09-09T02:31:38;13.60;99.90
12557;DHT22;6344;49.932;8.308;2022-09-09T02:34:06;13.60;99.90
12557;DHT22;6344;49.932;8.308;2022-09-09T02:36:37;13.60;99.90
12557;DHT22;6344;49.932;8.308;2022-09-09T02:39:07;13.50;99.90
12557;DHT22;6344;49.932;8.308;2022-09-09T02:41:38;13.50;99.90
12557;DHT22;6344;49.932;8.308;2022-09-09T02:44:09;13.50;99.90
12557;DHT22;6344;49.932;8.308;2022-09-09T02:46:57;13.50;99.90
12557;DHT22;6344;49.932;8.308;2022-09-09T02:49:30;13.40;99.90
12557;DHT22;6344;49.932;8.308;2022-09-09T02:52:02;13.40;99.90
12557;DHT22;6344;49.932;8.308;2022-09-09T02:54:32;13.40;99.90
12557;DHT22;6344;49.932;8.308;2022-09-09T02:57:06;13.30;99.90
12557;DHT22;6344;49.932;8.308;2022-09-09T02:59:34;13.20;99.90
12557;DHT22;6344;49.932;8.308;2022-09-09T03:02:03;13.10;99.90
12557;DHT22;6344;49.932;8.308;2022-09-09T03:04:30;13.00;99.90
12557;DHT22;6344;49.932;8.308;2022-09-09T03:06:57;12.90;99.90
12557;DHT22;6344;49.932;8.308;2022-09-09T03:09:24;12.80;99.90
12557;DHT22;6344;49.932;8.308;2022-09-09T03:11:51;13.00;99.90
12557;DHT22;6344;49.932;8.308;2022-09-09T03:14:20;12.90;99.90
12557;DHT22;6344;49.932;8.308;2022-09-09T03:16:50;13.00;99.90
12557;DHT22;6344;49.932;8.308;2022-09-09T03:19:18;13.00;99.90
12557;DHT22;6344;49.932;8.308;2022-09-09T03:21:45;13.00;99.90
12557;DHT22;6344;49.932;8.308;2022-09-09T03:24:12;13.00;99.90
12557;DHT22;6344;49.932;8.308;2022-09-09T03:26:39;12.90;99.90
12557;DHT22;6344;49.932;8.308;2022-09-09T03:29:06;13.00;99.90
12557;DHT22;6344;49.932;8.308;2022-09-09T03:31:33;13.20;99.90
12557;DHT22;6344;49.932;8.308;2022-09-09T03:34:01;13.30;99.90
12557;DHT22;6344;49.932;8.308;2022-09-09T03:36:30;13.40;99.90
12557;DHT22;6344;49.932;8.308;2022-09-09T03:38:57;13.50;99.90
12557;DHT22;6344;49.932;8.308;2022-09-09T03:41:24;13.50;99.90
12557;DHT22;6344;49.932;8.308;2022-09-09T03:43:51;13.60;99.90
12557;DHT22;6344;49.932;8.308;2022-09-09T03:46:18;13.60;99.90
12557;DHT22;6344;49.932;8.308;2022-09-09T03:48:45;13.70;99.90
12557;DHT22;6344;49.932;8.308;2022-09-09T03:51:12;13.60;99.90
12557;DHT22;6344;49.932;8.308;2022-09-09T03:53:40;13.60;99.90
12557;DHT22;6344;49.932;8.308;2022-09-09T03:56:07;13.60;99.90
12557;DHT22;6344;49.932;8.308;2022-09-09T03:58:35;13.70;99.90
12557;DHT22;6344;49.932;8.308;2022-09-09T04:01:03;13.80;99.90
12557;DHT22;6344;49.932;8.308;2022-09-09T04:03:30;13.80;99.90
12557;DHT22;6344;49.932;8.308;2022-09-09T04:05:59;13.70;99.90
12557;DHT22;6344;49.932;8.308;2022-09-09T04:08:27;13.70;99.90
12557;DHT22;6344;49.932;8.308;2022-09-09T04:10:57;13.70;99.90
12557;DHT22;6344;49.932;8.308;2022-09-09T04:13:24;13.60;99.90
12557;DHT22;6344;49.932;8.308;2022-09-09T04:15:52;13.70;99.90
12557;DHT22;6344;49.932;8.308;2022-09-09T04:18:20;13.70;99.90
12557;DHT22;6344;49.932;8.308;2022-09-09T04:20:47;13.80;99.90
12557;DHT22;6344;49.932;8.308;2022-09-09T04:23:14;13.80;99.90
12557;DHT22;6344;49.932;8.308;2022-09-09T04:25:44;13.80;99.90
12557;DHT22;6344;49.932;8.308;2022-09-09T04:28:13;13.80;99.90
12557;DHT22;6344;49.932;8.308;2022-09-09T04:30:40;13.70;99.90
12557;DHT22;6344;49.932;8.308;2022-09-09T04:33:07;13.60;99.90
12557;DHT22;6344;49.932;8.308;2022-09-09T04:35:35;13.50;99.90
12557;DHT22;6344;49.932;8.308;2022-09-09T04:38:02;13.50;99.90
12557;DHT22;6344;49.932;8.308;2022-09-09T04:40:29;13.40;99.90
12557;DHT22;6344;49.932;8.308;2022-09-09T04:42:57;13.40;99.90
12557;DHT22;6344;49.932;8.308;2022-09-09T04:45:26;13.30;99.90
12557;DHT22;6344;49.932;8.308;2022-09-09T04:47:52;13.20;99.90
12557;DHT22;6344;49.932;8.308;2022-09-09T04:50:19;13.20;99.90
12557;DHT22;6344;49.932;8.308;2022-09-09T04:52:46;13.10;99.90
12557;DHT22;6344;49.932;8.308;2022-09-09T04:55:13;13.10;99.90
12557;DHT22;6344;49.932;8.308;2022-09-09T04:57:40;13.10;99.90
12557;DHT22;6344;49.932;8.308;2022-09-09T05:00:08;13.10;99.90
12557;DHT22;6344;49.932;8.308;2022-09-09T05:02:38;13.00;99.90
12557;DHT22;6344;49.932;8.308;2022-09-09T05:05:05;13.00;99.90
12557;DHT22;6344;49.932;8.308;2022-09-09T05:07:32;13.00;99.90
12557;DHT22;6344;49.932;8.308;2022-09-09T05:09:59;13.00;99.90
12557;DHT22;6344;49.932;8.308;2022-09-09T05:12:26;13.00;99.90
12557;DHT22;6344;49.932;8.308;2022-09-09T05:14:52;13.20;99.90
12557;DHT22;6344;49.932;8.308;2022-09-09T05:17:19;13.30;99.90
12557;DHT22;6344;49.932;8.308;2022-09-09T05:19:48;13.60;99.90
12557;DHT22;6344;49.932;8.308;2022-09-09T05:22:18;13.70;99.90
12557;DHT22;6344;49.932;8.308;2022-09-09T05:24:45;13.80;99.90
12557;DHT22;6344;49.932;8.308;2022-09-09T05:27:12;13.70;99.90
12557;DHT22;6344;49.932;8.308;2022-09-09T05:29:39;13.70;99.90
12557;DHT22;6344;49.932;8.308;2022-09-09T05:32:06;13.70;99.90
12557;DHT22;6344;49.932;8.308;2022-09-09T05:34:33;13.80;99.90
12557;DHT22;6344;49.932;8.308;2022-09-09T05:37:01;13.90;99.90
12557;DHT22;6344;49.932;8.308;2022-09-09T05:39:29;14.00;99.90
12557;DHT22;6344;49.932;8.308;2022-09-09T05:41:58;14.10;99.90
12557;DHT22;6344;49.932;8.308;2022-09-09T05:44:25;14.20;99.90
12557;DHT22;6344;49.932;8.308;2022-09-09T05:46:53;14.20;99.90
12557;DHT22;6344;49.932;8.308;2022-09-09T05:49:20;14.40;99.90
12557;DHT22;6344;49.932;8.308;2022-09-09T05:51:47;14.50;99.90
12557;DHT22;6344;49.932;8.308;2022-09-09T05:54:15;14.50;99.90
12557;DHT22;6344;49.932;8.308;2022-09-09T05:56:41;14.70;99.90
12557;DHT22;6344;49.932;8.308;2022-09-09T05:59:08;15.00;99.90
12557;DHT22;6344;49.932;8.308;2022-09-09T06:01:36;15.20;99.90
12557;DHT22;6344;49.932;8.308;2022-09-09T06:04:06;15.30;99.90
12557;DHT22;6344;49.932;8.308;2022-09-09T06:06:34;15.40;99.90
12557;DHT22;6344;49.932;8.308;2022-09-09T06:09:03;15.70;99.90
12557;DHT22;6344;49.932;8.308;2022-09-09T06:11:33;15.90;99.90
12557;DHT22;6344;49.932;8.308;2022-09-09T06:14:01;16.00;99.90
12557;DHT22;6344;49.932;8.308;2022-09-09T06:16:29;16.20;99.90
12557;DHT22;6344;49.932;8.308;2022-09-09T06:18:58;16.20;99.90
12557;DHT22;6344;49.932;8.308;2022-09-09T06:21:26;16.40;99.90
12557;DHT22;6344;49.932;8.308;2022-09-09T06:23:53;16.50;99.90
12557;DHT22;6344;49.932;8.308;2022-09-09T06:26:21;16.80;99.90
12557;DHT22;6344;49.932;8.308;2022-09-09T06:28:50;17.10;99.90
12557;DHT22;6344;49.932;8.308;2022-09-09T06:31:19;17.20;99.90
12557;DHT22;6344;49.932;8.308;2022-09-09T06:33:47;17.70;99.90
12557;DHT22;6344;49.932;8.308;2022-09-09T06:36:16;18.10;99.90
12557;DHT22;6344;49.932;8.308;2022-09-09T06:38:43;18.20;99.90
12557;DHT22;6344;49.932;8.308;2022-09-09T06:41:12;18.30;99.90
12557;DHT22;6344;49.932;8.308;2022-09-09T06:43:39;18.00;99.90
12557;DHT22;6344;49.932;8.308;2022-09-09T06:46:09;17.90;99.90
12557;DHT22;6344;49.932;8.308;2022-09-09T06:48:38;17.90;99.90
12557;DHT22;6344;49.932;8.308;2022-09-09T06:51:08;17.90;99.90
12557;DHT22;6344;49.932;8.308;2022-09-09T06:53:36;17.90;99.90
12557;DHT22;6344;49.932;8.308;2022-09-09T06:56:18;18.10;99.90
12557;DHT22;6344;49.932;8.308;2022-09-09T06:58:45;18.20;99.90
12557;DHT22;6344;49.932;8.308;2022-09-09T07:01:17;18.30;99.90
12557;DHT22;6344;49.932;8.308;2022-09-09T07:03:46;18.30;99.90
12557;DHT22;6344;49.932;8.308;2022-09-09T07:06:17;18.10;99.90
12557;DHT22;6344;49.932;8.308;2022-09-09T07:08:48;18.10;99.90
12557;DHT22;6344;49.932;8.308;2022-09-09T07:11:15;18.40;99.90
12557;DHT22;6344;49.932;8.308;2022-09-09T07:13:42;18.30;99.90
12557;DHT22;6344;49.932;8.308;2022-09-09T07:16:10;18.50;99.90
12557;DHT22;6344;49.932;8.308;2022-09-09T07:18:39;18.80;99.90
12557;DHT22;6344;49.932;8.308;2022-09-09T07:21:07;19.40;99.90
12557;DHT22;6344;49.932;8.308;2022-09-09T07:23:34;19.40;99.90
12557;DHT22;6344;49.932;8.308;2022-09-09T07:26:02;19.40;99.90
12557;DHT22;6344;49.932;8.308;2022-09-09T07:28:29;19.20;99.90
12557;DHT22;6344;49.932;8.308;2022-09-09T07:30:57;19.30;1.00
12557;DHT22;6344;49.932;8.308;2022-09-09T07:33:25;19.20;1.00
12557;DHT22;6344;49.932;8.308;2022-09-09T07:35:53;19.20;92.20
12557;DHT22;6344;49.932;8.308;2022-09-09T07:38:20;18.90;99.90
12557;DHT22;6344;49.932;8.308;2022-09-09T07:40:48;19.00;99.90
12557;DHT22;6344;49.932;8.308;2022-09-09T07:43:14;19.30;15.10
12557;DHT22;6344;49.932;8.308;2022-09-09T07:45:42;20.00;99.90
12557;DHT22;6344;49.932;8.308;2022-09-09T07:48:09;21.00;99.90
12557;DHT22;6344;49.932;8.308;2022-09-09T07:50:36;21.60;1.00
12557;DHT22;6344;49.932;8.308;2022-09-09T07:53:04;21.40;1.00
12557;DHT22;6344;49.932;8.308;2022-09-09T07:55:31;20.70;1.00
12557;DHT22;6344;49.932;8.308;2022-09-09T07:57:58;20.80;1.00
12557;DHT22;6344;49.932;8.308;2022-09-09T08:00:25;21.00;1.00
12557;DHT22;6344;49.932;8.308;2022-09-09T08:02:53;20.60;1.00
12557;DHT22;6344;49.932;8.308;2022-09-09T08:05:20;20.50;1.00
12557;DHT22;6344;49.932;8.308;2022-09-09T08:07:47;20.90;99.90
12557;DHT22;6344;49.932;8.308;2022-09-09T08:10:15;20.90;99.90
12557;DHT22;6344;49.932;8.308;2022-09-09T08:12:43;21.10;1.00
12557;DHT22;6344;49.932;8.308;2022-09-09T08:15:11;21.30;99.90
12557;DHT22;6344;49.932;8.308;2022-09-09T08:17:38;20.90;99.90
12557;DHT22;6344;49.932;8.308;2022-09-09T08:20:05;20.40;99.90
12557;DHT22;6344;49.932;8.308;2022-09-09T08:22:32;20.20;99.90
12557;DHT22;6344;49.932;8.308;2022-09-09T08:24:59;20.20;1.00
12557;DHT22;6344;49.932;8.308;2022-09-09T08:27:28;20.20;99.90
12557;DHT22;6344;49.932;8.308;2022-09-09T08:29:55;20.30;99.90
12557;DHT22;6344;49.932;8.308;2022-09-09T08:32:22;20.60;99.90
12557;DHT22;6344;49.932;8.308;2022-09-09T08:34:49;20.70;99.90
12557;DHT22;6344;49.932;8.308;2022-09-09T08:37:16;20.50;99.90
12557;DHT22;6344;49.932;8.308;2022-09-09T08:39:44;20.70;99.90
12557;DHT22;6344;49.932;8.308;2022-09-09T08:42:31;20.60;99.90
12557;DHT22;6344;49.932;8.308;2022-09-09T08:45:26;20.60;99.90
12557;DHT22;6344;49.932;8.308;2022-09-09T08:48:14;20.40;99.90
12557;DHT22;6344;49.932;8.308;2022-09-09T08:50:44;20.00;99.90
12557;DHT22;6344;49.932;8.308;2022-09-09T08:53:17;19.90;1.00
12557;DHT22;6344;49.932;8.308;2022-09-09T08:55:47;19.80;99.90
12557;DHT22;6344;49.932;8.308;2022-09-09T08:58:17;19.80;99.90
12557;DHT22;6344;49.932;8.308;2022-09-09T09:00:54;19.80;1.00
12557;DHT22;6344;49.932;8.308;2022-09-09T09:03:30;19.80;1.00
12557;DHT22;6344;49.932;8.308;2022-09-09T09:06:06;19.80;1.00
12557;DHT22;6344;49.932;8.308;2022-09-09T09:08:40;19.70;1.00
12557;DHT22;6344;49.932;8.308;2022-09-09T09:11:09;19.70;99.90
12557;DHT22;6344;49.932;8.308;2022-09-09T09:13:43;19.60;1.00
12557;DHT22;6344;49.932;8.308;2022-09-09T09:16:18;19.50;1.00
12557;DHT22;6344;49.932;8.308;2022-09-09T09:18:46;20.00;1.00
12557;DHT22;6344;49.932;8.308;2022-09-09T09:21:16;21.30;99.90
12557;DHT22;6344;49.932;8.308;2022-09-09T09:23:49;21.80;99.90
12557;DHT22;6344;49.932;8.308;2022-09-09T09:26:18;22.30;99.90
12557;DHT22;6344;49.932;8.308;2022-09-09T09:28:46;22.40;99.90
12557;DHT22;6344;49.932;8.308;2022-09-09T09:31:13;23.00;99.90
12557;DHT22;6344;49.932;8.308;2022-09-09T09:33:47;23.90;99.90
12557;DHT22;6344;49.932;8.308;2022-09-09T09:36:15;24.00;99.90
12557;DHT22;6344;49.932;8.308;2022-09-09T09:38:53;23.60;99.90
12557;DHT22;6344;49.932;8.308;2022-09-09T09:41:32;23.40;99.90
12557;DHT22;6344;49.932;8.308;2022-09-09T09:44:01;23.80;99.90
12557;DHT22;6344;49.932;8.308;2022-09-09T09:46:28;24.70;99.90
12557;DHT22;6344;49.932;8.308;2022-09-09T09:48:59;25.40;95.80
12557;DHT22;6344;49.932;8.308;2022-09-09T09:51:27;26.40;93.50
12557;DHT22;6344;49.932;8.308;2022-09-09T09:54:06;25.80;80.90
12557;DHT22;6344;49.932;8.308;2022-09-09T09:56:35;26.10;76.60
12557;DHT22;6344;49.932;8.308;2022-09-09T09:59:03;26.20;68.50
12557;DHT22;6344;49.932;8.308;2022-09-09T10:01:32;25.90;63.40
12557;DHT22;6344;49.932;8.308;2022-09-09T10:04:01;25.20;55.40
12557;DHT22;6344;49.932;8.308;2022-09-09T10:06:32;24.50;57.50
12557;DHT22;6344;49.932;8.308;2022-09-09T10:09:00;24.30;57.60
12557;DHT22;6344;49.932;8.308;2022-09-09T10:11:40;23.90;52.60
12557;DHT22;6344;49.932;8.308;2022-09-09T10:14:18;23.10;49.90
12557;DHT22;6344;49.932;8.308;2022-09-09T10:16:55;22.90;52.20
12557;DHT22;6344;49.932;8.308;2022-09-09T10:19:30;22.80;76.40
12557;DHT22;6344;49.932;8.308;2022-09-09T10:22:05;22.70;63.10
12557;DHT22;6344;49.932;8.308;2022-09-09T10:25:10;22.70;62.40
12557;DHT22;6344;49.932;8.308;2022-09-09T10:27:46;22.30;54.10
12557;DHT22;6344;49.932;8.308;2022-09-09T10:30:18;22.00;61.70
12557;DHT22;6344;49.932;8.308;2022-09-09T10:32:48;21.80;72.30
12557;DHT22;6344;49.932;8.308;2022-09-09T10:35:27;21.90;66.00
12557;DHT22;6344;49.932;8.308;2022-09-09T10:38:09;21.70;81.80
12557;DHT22;6344;49.932;8.308;2022-09-09T10:40:41;22.20;73.40
12557;DHT22;6344;49.932;8.308;2022-09-09T10:43:17;22.60;77.20
12557;DHT22;6344;49.932;8.308;2022-09-09T10:45:56;22.40;56.30
12557;DHT22;6344;49.932;8.308;2022-09-09T10:48:31;22.40;56.20
12557;DHT22;6344;49.932;8.308;2022-09-09T10:51:13;22.30;66.20
12557;DHT22;6344;49.932;8.308;2022-09-09T10:53:49;22.60;67.70
12557;DHT22;6344;49.932;8.308;2022-09-09T10:56:18;22.40;68.10
12557;DHT22;6344;49.932;8.308;2022-09-09T10:58:48;22.40;67.50
12557;DHT22;6344;49.932;8.308;2022-09-09T11:01:22;22.50;62.70
12557;DHT22;6344;49.932;8.308;2022-09-09T11:03:54;22.30;63.70
12557;DHT22;6344;49.932;8.308;2022-09-09T11:06:28;22.90;50.80
12557;DHT22;6344;49.932;8.308;2022-09-09T11:08:57;24.20;42.30
12557;DHT22;6344;49.932;8.308;2022-09-09T11:11:29;25.40;40.10
12557;DHT22;6344;49.932;8.308;2022-09-09T11:14:01;26.10;32.70
12557;DHT22;6344;49.932;8.308;2022-09-09T11:16:35;26.40;22.00
12557;DHT22;6344;49.932;8.308;2022-09-09T11:19:13;25.00;19.30
12557;DHT22;6344;49.932;8.308;2022-09-09T11:21:45;24.20;14.00
12557;DHT22;6344;49.932;8.308;2022-09-09T11:24:16;23.40;10.30
12557;DHT22;6344;49.932;8.308;2022-09-09T11:26:49;22.80;18.90
12557;DHT22;6344;49.932;8.308;2022-09-09T11:29:36;23.30;21.10
12557;DHT22;6344;49.932;8.308;2022-09-09T11:32:38;23.40;23.20
12557;DHT22;6344;49.932;8.308;2022-09-09T11:35:24;23.20;24.40
12557;DHT22;6344;49.932;8.308;2022-09-09T11:40:44;22.60;29.00
12557;DHT22;6344;49.932;8.308;2022-09-09T11:43:15;22.70;27.70
12557;DHT22;6344;49.932;8.308;2022-09-09T11:45:51;22.80;29.40
12557;DHT22;6344;49.932;8.308;2022-09-09T11:48:28;22.60;31.40
12557;DHT22;6344;49.932;8.308;2022-09-09T11:51:02;22.70;25.80
12557;DHT22;6344;49.932;8.308;2022-09-09T11:53:31;22.90;26.20
12557;DHT22;6344;49.932;8.308;2022-09-09T11:56:10;22.60;29.00
12557;DHT22;6344;49.932;8.308;2022-09-09T11:58:41;22.50;35.60
12557;DHT22;6344;49.932;8.308;2022-09-09T12:01:29;22.20;24.70
12557;DHT22;6344;49.932;8.308;2022-09-09T12:04:16;22.10;21.50
12557;DHT22;6344;49.932;8.308;2022-09-09T12:06:46;21.80;19.40
12557;DHT22;6344;49.932;8.308;2022-09-09T12:09:22;21.50;23.90
12557;DHT22;6344;49.932;8.308;2022-09-09T12:11:49;21.40;24.80
12557;DHT22;6344;49.932;8.308;2022-09-09T12:14:21;21.30;28.50
12557;DHT22;6344;49.932;8.308;2022-09-09T12:16:48;20.90;67.80
12557;DHT22;6344;49.932;8.308;2022-09-09T12:19:19;19.90;99.90
12557;DHT22;6344;49.932;8.308;2022-09-09T12:21:54;19.30;99.90
12557;DHT22;6344;49.932;8.308;2022-09-09T12:24:28;19.00;99.90
12557;DHT22;6344;49.932;8.308;2022-09-09T12:26:59;19.00;99.90
12557;DHT22;6344;49.932;8.308;2022-09-09T12:29:38;19.10;99.90
12557;DHT22;6344;49.932;8.308;2022-09-09T12:32:10;19.10;99.90
12557;DHT22;6344;49.932;8.308;2022-09-09T12:34:41;19.20;99.90
12557;DHT22;6344;49.932;8.308;2022-09-09T12:37:16;19.00;99.90
12557;DHT22;6344;49.932;8.308;2022-09-09T12:39:45;18.50;99.90
12557;DHT22;6344;49.932;8.308;2022-09-09T12:42:21;18.30;99.90
12557;DHT22;6344;49.932;8.308;2022-09-09T12:44:56;18.10;1.00
12557;DHT22;6344;49.932;8.308;2022-09-09T12:47:26;17.80;1.00
12557;DHT22;6344;49.932;8.308;2022-09-09T12:49:57;17.30;99.90
12557;DHT22;6344;49.932;8.308;2022-09-09T12:52:28;17.00;1.00
12557;DHT22;6344;49.932;8.308;2022-09-09T12:54:57;16.80;99.90
12557;DHT22;6344;49.932;8.308;2022-09-09T12:57:26;16.90;1.00
12557;DHT22;6344;49.932;8.308;2022-09-09T13:00:11;17.30;99.90
12557;DHT22;6344;49.932;8.308;2022-09-09T13:02:46;17.50;99.90
12557;DHT22;6344;49.932;8.308;2022-09-09T13:05:19;17.70;1.00
12557;DHT22;6344;49.932;8.308;2022-09-09T13:07:47;17.70;99.90
12557;DHT22;6344;49.932;8.308;2022-09-09T13:10:22;17.90;99.90
12557;DHT22;6344;49.932;8.308;2022-09-09T13:12:50;18.50;1.00
12557;DHT22;6344;49.932;8.308;2022-09-09T13:15:21;19.40;99.90
12557;DHT22;6344;49.932;8.308;2022-09-09T13:17:51;20.20;99.90
12557;DHT22;6344;49.932;8.308;2022-09-09T13:20:21;21.90;99.90
12557;DHT22;6344;49.932;8.308;2022-09-09T13:22:49;23.40;99.90
12557;DHT22;6344;49.932;8.308;2022-09-09T13:25:21;24.20;95.20
12557;DHT22;6344;49.932;8.308;2022-09-09T13:27:58;24.70;77.90
12557;DHT22;6344;49.932;8.308;2022-09-09T13:30:28;24.30;55.10
12557;DHT22;6344;49.932;8.308;2022-09-09T13:33:04;24.10;53.10
12557;DHT22;6344;49.932;8.308;2022-09-09T13:35:33;23.80;47.80
12557;DHT22;6344;49.932;8.308;2022-09-09T13:38:07;23.10;45.90
12557;DHT22;6344;49.932;8.308;2022-09-09T13:40:35;22.40;63.00
12557;DHT22;6344;49.932;8.308;2022-09-09T13:43:02;21.70;85.70
12557;DHT22;6344;49.932;8.308;2022-09-09T13:45:30;21.40;90.80
12557;DHT22;6344;49.932;8.308;2022-09-09T13:48:08;20.90;99.90
12557;DHT22;6344;49.932;8.308;2022-09-09T13:50:37;20.80;99.90
12557;DHT22;6344;49.932;8.308;2022-09-09T13:53:03;20.80;99.90
12557;DHT22;6344;49.932;8.308;2022-09-09T13:55:30;20.70;99.90
12557;DHT22;6344;49.932;8.308;2022-09-09T13:57:59;20.80;99.90
12557;DHT22;6344;49.932;8.308;2022-09-09T14:00:29;20.80;99.90
12557;DHT22;6344;49.932;8.308;2022-09-09T14:02:56;21.00;99.90
12557;DHT22;6344;49.932;8.308;2022-09-09T14:05:23;21.00;99.90
12557;DHT22;6344;49.932;8.308;2022-09-09T14:07:51;21.10;99.90
12557;DHT22;6344;49.932;8.308;2022-09-09T14:10:18;21.00;99.90
12557;DHT22;6344;49.932;8.308;2022-09-09T14:12:45;21.10;99.90
12557;DHT22;6344;49.932;8.308;2022-09-09T14:15:12;20.90;99.90
12557;DHT22;6344;49.932;8.308;2022-09-09T14:17:39;20.70;99.90
12557;DHT22;6344;49.932;8.308;2022-09-09T14:20:07;20.60;99.90
12557;DHT22;6344;49.932;8.308;2022-09-09T14:22:35;20.50;99.90
12557;DHT22;6344;49.932;8.308;2022-09-09T14:25:06;20.50;99.90
12557;DHT22;6344;49.932;8.308;2022-09-09T14:27:33;20.50;99.90
12557;DHT22;6344;49.932;8.308;2022-09-09T14:30:00;20.60;99.90
12557;DHT22;6344;49.932;8.308;2022-09-09T14:32:27;20.40;99.90
12557;DHT22;6344;49.932;8.308;2022-09-09T14:34:56;20.20;99.90
12557;DHT22;6344;49.932;8.308;2022-09-09T14:37:23;20.10;99.90
12557;DHT22;6344;49.932;8.308;2022-09-09T14:39:49;20.00;99.90
12557;DHT22;6344;49.932;8.308;2022-09-09T14:42:18;20.00;99.90
12557;DHT22;6344;49.932;8.308;2022-09-09T14:44:45;20.00;99.90
12557;DHT22;6344;49.932;8.308;2022-09-09T14:47:11;20.00;99.90
12557;DHT22;6344;49.932;8.308;2022-09-09T14:49:38;20.10;99.90
12557;DHT22;6344;49.932;8.308;2022-09-09T14:52:05;19.90;99.90
12557;DHT22;6344;49.932;8.308;2022-09-09T14:54:31;19.70;99.90
12557;DHT22;6344;49.932;8.308;2022-09-09T14:56:58;19.60;1.00
12557;DHT22;6344;49.932;8.308;2022-09-09T14:59:26;19.50;1.00
12557;DHT22;6344;49.932;8.308;2022-09-09T15:01:53;19.40;99.90
12557;DHT22;6344;49.932;8.308;2022-09-09T15:04:20;19.50;99.90
12557;DHT22;6344;49.932;8.308;2022-09-09T15:06:47;20.00;99.90
12557;DHT22;6344;49.932;8.308;2022-09-09T15:09:15;20.00;82.20
12557;DHT22;6344;49.932;8.308;2022-09-09T15:11:42;19.80;99.90
12557;DHT22;6344;49.932;8.308;2022-09-09T15:14:09;19.90;99.90
12557;DHT22;6344;49.932;8.308;2022-09-09T15:16:39;19.70;1.00
12557;DHT22;6344;49.932;8.308;2022-09-09T15:19:06;19.60;19.10
12557;DHT22;6344;49.932;8.308;2022-09-09T15:21:35;19.50;1.00
12557;DHT22;6344;49.932;8.308;2022-09-09T15:24:03;19.40;1.00
12557;DHT22;6344;49.932;8.308;2022-09-09T15:26:31;19.30;1.00
12557;DHT22;6344;49.932;8.308;2022-09-09T15:28:57;19.30;1.00
12557;DHT22;6344;49.932;8.308;2022-09-09T15:31:27;19.40;1.00
12557;DHT22;6344;49.932;8.308;2022-09-09T15:33:58;19.40;1.00
12557;DHT22;6344;49.932;8.308;2022-09-09T15:36:28;19.60;1.00
12557;DHT22;6344;49.932;8.308;2022-09-09T15:38:55;19.70;1.00
12557;DHT22;6344;49.932;8.308;2022-09-09T15:41:23;19.70;1.00
12557;DHT22;6344;49.932;8.308;2022-09-09T15:43:51;19.80;1.00
12557;DHT22;6344;49.932;8.308;2022-09-09T15:46:27;19.90;99.90
12557;DHT22;6344;49.932;8.308;2022-09-09T15:48:57;19.90;99.90
12557;DHT22;6344;49.932;8.308;2022-09-09T15:51:25;19.90;99.90
12557;DHT22;6344;49.932;8.308;2022-09-09T15:53:57;19.90;99.90
12557;DHT22;6344;49.932;8.308;2022-09-09T15:56:25;19.70;1.00
12557;DHT22;6344;49.932;8.308;2022-09-09T15:58:54;19.60;1.00
12557;DHT22;6344;49.932;8.308;2022-09-09T16:01:21;19.50;1.00
12557;DHT22;6344;49.932;8.308;2022-09-09T16:03:48;19.30;1.00
12557;DHT22;6344;49.932;8.308;2022-09-09T16:06:19;19.20;1.00
12557;DHT22;6344;49.932;8.308;2022-09-09T16:08:48;19.20;1.00
12557;DHT22;6344;49.932;8.308;2022-09-09T16:11:17;19.00;1.00
12557;DHT22;6344;49.932;8.308;2022-09-09T16:13:46;18.90;1.00